Time;durP1;ratioP1;P1;durP2;ratioP2;P2;SDS_P1;SDS_P2;PMS_P1;PMS_P2;Temp;Humidity;BMP_temperature;BMP_pressure;BME280_temperature;BME280_humidity;BME280_pressure;Samples;Min_cycle;Max_cycle;Signal;HPM_P1;HPM_P2
2022/06/09 00:01:23;;;;;;;13.50;5.25;;;15.30;88.50;;;;;;5095879;28;20076;-72
2022/06/09 00:03:57;;;;;;;12.63;4.93;;;15.30;88.40;;;;;;5096021;28;20024;-72
2022/06/09 00:06:28;;;;;;;8.85;4.72;;;15.30;88.30;;;;;;5095982;28;20017;-72
2022/06/09 00:08:54;;;;;;;10.48;4.47;;;15.30;88.30;;;;;;5095958;28;20020;-72
2022/06/09 00:11:24;;;;;;;10.70;4.45;;;15.20;88.20;;;;;;5095726;28;20040;-72
2022/06/09 00:13:50;;;;;;;10.90;4.20;;;15.20;88.50;;;;;;5095742;28;20025;-72
2022/06/09 00:16:16;;;;;;;9.88;4.18;;;15.10;88.80;;;;;;5095550;28;20092;-72
2022/06/09 00:18:42;;;;;;;9.57;4.50;;;15.10;89.20;;;;;;5095593;28;20035;-72
2022/06/09 00:21:08;;;;;;;11.13;4.07;;;15.10;89.50;;;;;;5095575;28;20029;-72
2022/06/09 00:23:34;;;;;;;8.77;4.13;;;15.10;89.70;;;;;;5095520;28;20020;-72
2022/06/09 00:26:00;;;;;;;14.07;4.47;;;15.10;89.80;;;;;;5095471;28;20036;-72
2022/06/09 00:28:26;;;;;;;13.90;4.85;;;15.10;90.00;;;;;;5095314;28;20020;-72
2022/06/09 00:30:52;;;;;;;11.50;4.38;;;15.10;90.00;;;;;;5095393;28;20483;-72
2022/06/09 00:33:18;;;;;;;9.25;4.13;;;15.10;90.10;;;;;;5095327;28;20031;-72
2022/06/09 00:35:44;;;;;;;9.98;4.40;;;15.10;90.00;;;;;;5094408;28;20052;-72
2022/06/09 00:38:11;;;;;;;9.98;4.07;;;15.10;90.10;;;;;;5095227;28;20036;-72
2022/06/09 00:40:37;;;;;;;12.82;4.70;;;15.10;90.30;;;;;;5094679;28;20025;-72
2022/06/09 00:43:04;;;;;;;9.40;4.45;;;15.10;90.20;;;;;;5095120;28;20028;-72
2022/06/09 00:45:36;;;;;;;9.27;4.22;;;15.10;90.30;;;;;;5095102;28;20016;-72
2022/06/09 00:48:17;;;;;;;9.75;4.57;;;15.10;90.40;;;;;;5095073;28;20012;-72
2022/06/09 00:50:44;;;;;;;13.02;4.30;;;15.10;90.40;;;;;;5095037;28;20025;-72
2022/06/09 00:53:16;;;;;;;10.93;4.68;;;15.10;90.40;;;;;;5094949;28;20031;-72
2022/06/09 00:55:42;;;;;;;13.30;4.50;;;15.10;90.40;;;;;;5094868;28;20016;-72
2022/06/09 00:58:14;;;;;;;10.18;4.32;;;15.10;90.50;;;;;;5094952;28;20084;-72
2022/06/09 01:00:49;;;;;;;;;;;15.10;90.60;;;;;;5095091;28;20055;-72
2022/06/09 01:03:19;;;;;;;15.93;4.18;;;15.00;90.60;;;;;;5094750;28;19908;-72
2022/06/09 01:05:47;;;;;;;12.55;4.60;;;15.00;90.80;;;;;;5094823;28;20008;-72
2022/06/09 01:08:14;;;;;;;15.52;4.22;;;15.00;90.90;;;;;;5094667;28;20024;-72
2022/06/09 01:10:40;;;;;;;14.40;4.07;;;15.00;90.90;;;;;;5094572;28;20027;-72
2022/06/09 01:13:06;;;;;;;11.38;4.45;;;15.00;90.80;;;;;;5094517;28;20028;-72
2022/06/09 01:16:00;;;;;;;12.20;4.70;;;15.00;90.80;;;;;;5093429;28;20100;-72
2022/06/09 01:19:10;;;;;;;12.82;4.03;;;15.00;90.70;;;;;;5094554;28;20031;-72
2022/06/09 01:21:57;;;;;;;13.68;4.50;;;15.10;90.50;;;;;;5078655;28;20082;-72
2022/06/09 01:24:41;;;;;;;11.23;4.05;;;15.10;90.50;;;;;;5094297;28;20025;-72
2022/06/09 01:27:29;;;;;;;10.27;3.92;;;15.00;90.40;;;;;;5094265;28;20059;-72
2022/06/09 01:30:20;;;;;;;18.95;4.60;;;15.00;90.50;;;;;;5094141;28;20116;-72
2022/06/09 01:32:58;;;;;;;9.98;4.00;;;15.00;90.50;;;;;;5094146;28;20033;-72
2022/06/09 01:35:35;;;;;;;17.05;4.55;;;15.00;90.50;;;;;;5094243;28;20615;-72
2022/06/09 01:38:01;;;;;;;14.75;4.30;;;15.00;90.40;;;;;;5094203;28;20044;-72
2022/06/09 01:40:28;;;;;;;16.25;4.75;;;14.90;90.30;;;;;;5093957;28;20030;-72
2022/06/09 01:42:57;;;;;;;14.43;4.63;;;14.90;90.50;;;;;;5093948;28;20025;-72
2022/06/09 01:45:51;;;;;;;13.25;4.35;;;14.90;90.40;;;;;;5093859;28;20016;-72
2022/06/09 01:48:19;;;;;;;11.98;4.63;;;14.90;90.40;;;;;;5093802;28;20033;-72
2022/06/09 01:51:09;;;;;;;12.60;4.47;;;14.80;90.50;;;;;;5093808;28;20025;-72
2022/06/09 01:53:39;;;;;;;13.02;5.13;;;14.80;90.40;;;;;;5092999;28;20028;-72
2022/06/09 01:56:10;;;;;;;14.85;4.72;;;14.80;90.40;;;;;;5093810;28;20115;-72
2022/06/09 01:58:42;;;;;;;15.77;5.10;;;14.70;90.40;;;;;;5093713;28;20017;-72
2022/06/09 02:01:10;;;;;;;9.75;4.43;;;14.70;90.50;;;;;;5093504;28;20483;-72
2022/06/09 02:03:41;;;;;;;15.70;4.68;;;14.70;90.40;;;;;;5093580;28;20029;-72
2022/06/09 02:06:10;;;;;;;12.32;3.88;;;14.70;90.40;;;;;;5093574;28;20091;-72
2022/06/09 02:08:36;;;;;;;14.05;4.75;;;14.70;90.30;;;;;;5093506;28;20031;-72
2022/06/09 02:11:07;;;;;;;13.98;5.13;;;14.70;90.40;;;;;;5092564;28;20043;-72
2022/06/09 02:13:51;;;;;;;16.13;5.13;;;14.70;90.40;;;;;;5093517;28;20051;-72
2022/06/09 02:16:19;;;;;;;15.85;5.35;;;14.70;90.40;;;;;;5093376;28;20025;-72
2022/06/09 02:18:48;;;;;;;10.70;4.25;;;14.70;90.40;;;;;;5093416;28;20460;-72
2022/06/09 02:21:25;;;;;;;13.77;4.28;;;14.60;90.30;;;;;;5092299;28;20040;-72
2022/06/09 02:23:52;;;;;;;15.57;4.50;;;14.70;90.30;;;;;;5093301;28;20024;-72
2022/06/09 02:26:18;;;;;;;19.63;4.72;;;14.80;90.30;;;;;;5093272;28;20078;-72
2022/06/09 02:28:43;;;;;;;12.82;5.25;;;14.70;90.20;;;;;;5093215;28;20020;-72
2022/06/09 02:31:10;;;;;;;12.57;4.88;;;14.70;90.20;;;;;;5093257;28;20107;-72
2022/06/09 02:33:36;;;;;;;12.40;5.40;;;14.70;90.10;;;;;;5092161;28;20460;-72
2022/06/09 02:36:01;;;;;;;16.45;6.00;;;14.70;90.20;;;;;;5093106;28;20080;-72
2022/06/09 02:38:27;;;;;;;16.33;5.55;;;14.70;90.20;;;;;;5093188;28;20028;-72
2022/06/09 02:40:54;;;;;;;18.23;5.63;;;14.70;90.30;;;;;;5093152;28;20058;-72
2022/06/09 02:43:21;;;;;;;14.93;5.72;;;14.70;90.80;;;;;;5093159;28;20008;-72
2022/06/09 02:45:47;;;;;;;17.40;5.22;;;14.70;90.40;;;;;;5093107;28;20029;-72
2022/06/09 02:48:13;;;;;;;16.80;5.35;;;14.60;90.40;;;;;;5093078;28;20415;-72
2022/06/09 02:50:39;;;;;;;19.25;5.47;;;14.60;90.90;;;;;;5093065;28;20025;-72
2022/06/09 02:53:06;;;;;;;13.30;5.97;;;14.70;90.60;;;;;;5093026;28;20017;-72
2022/06/09 02:55:33;;;;;;;17.48;6.13;;;14.70;90.60;;;;;;5093029;28;20037;-72
2022/06/09 02:57:59;;;;;;;22.05;6.90;;;14.70;90.60;;;;;;5091885;28;20033;-72
2022/06/09 03:00:24;;;;;;;18.70;6.45;;;14.70;90.60;;;;;;5092809;28;20048;-72
2022/06/09 03:02:54;;;;;;;16.52;6.68;;;14.70;90.50;;;;;;5092955;28;20040;-72
2022/06/09 03:05:20;;;;;;;18.80;6.05;;;14.80;90.50;;;;;;5095802;28;20383;-72
2022/06/09 03:07:45;;;;;;;21.27;5.88;;;14.70;90.60;;;;;;5096945;28;20036;-72
2022/06/09 03:10:11;;;;;;;19.83;6.25;;;14.70;90.50;;;;;;5096894;28;20111;-72
2022/06/09 03:12:36;;;;;;;20.17;6.45;;;14.70;90.60;;;;;;5096864;28;20088;-72
2022/06/09 03:15:07;;;;;;;17.38;6.38;;;14.70;90.60;;;;;;5096815;28;20033;-72
2022/06/09 03:17:34;;;;;;;15.95;5.70;;;14.70;90.60;;;;;;5096759;28;20020;-72
2022/06/09 03:19:59;;;;;;;17.00;5.97;;;14.80;90.60;;;;;;5096732;28;20020;-72
2022/06/09 03:22:25;;;;;;;20.98;6.22;;;14.80;90.60;;;;;;5096647;28;20054;-72
2022/06/09 03:24:50;;;;;;;22.95;6.40;;;14.80;90.60;;;;;;5096622;28;20032;-72
2022/06/09 03:27:16;;;;;;;19.50;6.32;;;14.80;90.50;;;;;;5096586;28;20029;-72
2022/06/09 03:29:42;;;;;;;21.50;6.05;;;14.80;90.60;;;;;;5096463;28;20029;-72
2022/06/09 03:32:08;;;;;;;16.75;5.97;;;14.80;90.60;;;;;;5096579;28;20070;-72
2022/06/09 03:34:34;;;;;;;21.90;7.07;;;14.80;90.60;;;;;;5096559;28;20032;-72
2022/06/09 03:37:00;;;;;;;15.90;6.68;;;14.80;90.70;;;;;;5096320;28;20031;-72
2022/06/09 03:39:26;;;;;;;15.32;6.07;;;14.80;90.70;;;;;;5096328;28;20028;-72
2022/06/09 03:41:51;;;;;;;21.20;6.63;;;14.80;90.70;;;;;;5095394;28;20076;-72
2022/06/09 03:44:17;;;;;;;24.70;6.55;;;14.80;90.70;;;;;;5095359;28;20056;-72
2022/06/09 03:46:43;;;;;;;17.88;6.25;;;14.80;90.80;;;;;;5096234;28;20039;-72
2022/06/09 03:49:09;;;;;;;22.73;6.05;;;14.80;90.80;;;;;;5096210;28;20033;-72
2022/06/09 03:51:35;;;;;;;18.33;6.32;;;14.80;90.80;;;;;;5095906;28;20024;-72
2022/06/09 03:54:01;;;;;;;18.90;6.18;;;14.80;90.80;;;;;;5096229;28;20025;-72
2022/06/09 03:56:28;;;;;;;21.20;6.35;;;14.80;91.20;;;;;;5095952;28;20174;-72
2022/06/09 03:58:54;;;;;;;20.67;7.68;;;14.80;90.80;;;;;;5096036;28;20029;-72
2022/06/09 04:01:19;;;;;;;21.88;6.82;;;14.80;90.80;;;;;;5095825;28;20053;-72
2022/06/09 04:03:47;;;;;;;22.70;6.72;;;14.80;91.00;;;;;;5095877;28;20050;-72
2022/06/09 04:06:24;;;;;;;18.67;6.43;;;14.80;91.00;;;;;;5095851;28;20025;-72
2022/06/09 04:08:50;;;;;;;21.02;7.25;;;14.80;90.90;;;;;;5095874;28;20061;-72
2022/06/09 04:11:17;;;;;;;24.02;7.07;;;14.90;90.90;;;;;;5095776;28;20025;-72
2022/06/09 04:13:43;;;;;;;21.83;6.93;;;14.80;90.90;;;;;;5095766;28;20047;-72
2022/06/09 04:16:17;;;;;;;22.48;6.95;;;14.90;90.90;;;;;;5094684;28;20035;-72
2022/06/09 04:18:43;;;;;;;16.25;6.63;;;14.90;90.90;;;;;;5095757;28;20025;-72
2022/06/09 04:21:08;;;;;;;21.98;7.35;;;14.90;90.90;;;;;;5095579;28;20031;-72
2022/06/09 04:23:34;;;;;;;23.88;7.28;;;14.90;90.90;;;;;;5095683;28;20084;-72
2022/06/09 04:25:59;;;;;;;22.20;7.95;;;14.90;90.90;;;;;;5095501;28;20074;-72
2022/06/09 04:28:25;;;;;;;23.85;7.95;;;14.90;90.90;;;;;;5095386;28;20035;-72
2022/06/09 04:30:51;;;;;;;18.73;7.03;;;14.90;91.00;;;;;;5095504;28;20084;-72
2022/06/09 04:33:16;;;;;;;20.35;7.40;;;14.90;91.00;;;;;;5095367;28;20054;-72
2022/06/09 04:35:42;;;;;;;17.73;6.85;;;14.90;91.10;;;;;;5094294;28;20059;-72
2022/06/09 04:38:09;;;;;;;26.35;8.00;;;14.90;91.10;;;;;;5095290;28;20103;-72
2022/06/09 04:40:37;;;;;;;24.17;7.93;;;14.90;91.10;;;;;;5095258;28;20031;-72
2022/06/09 04:43:05;;;;;;;24.38;8.55;;;14.90;91.10;;;;;;5095147;28;20024;-72
2022/06/09 04:45:31;;;;;;;18.67;6.75;;;15.00;91.10;;;;;;5095125;28;20047;-72
2022/06/09 04:47:56;;;;;;;17.83;7.65;;;14.90;91.20;;;;;;5095071;28;20029;-72
2022/06/09 04:50:22;;;;;;;19.40;7.63;;;14.90;91.30;;;;;;5095036;28;20043;-72
2022/06/09 04:52:48;;;;;;;20.77;8.27;;;15.00;91.40;;;;;;5095137;28;20070;-72
2022/06/09 04:55:15;;;;;;;26.40;8.10;;;15.00;91.50;;;;;;5095008;28;20020;-72
2022/06/09 04:57:40;;;;;;;19.92;7.60;;;15.10;91.40;;;;;;5094854;28;20055;-72
2022/06/09 05:00:08;;;;;;;22.88;7.72;;;15.10;91.20;;;;;;5094643;28;20055;-72
2022/06/09 05:02:34;;;;;;;22.13;7.40;;;15.10;91.30;;;;;;5094750;28;20029;-72
2022/06/09 05:04:59;;;;;;;24.50;7.80;;;15.10;91.20;;;;;;5094699;28;20036;-72
2022/06/09 05:07:25;;;;;;;25.98;8.48;;;15.10;91.20;;;;;;5094680;28;20119;-72
2022/06/09 05:09:51;;;;;;;21.52;7.85;;;15.10;91.10;;;;;;5094655;28;20017;-72
2022/06/09 05:12:17;;;;;;;23.00;7.35;;;15.10;91.10;;;;;;5094600;28;20051;-73
2022/06/09 05:14:42;;;;;;;16.60;8.20;;;15.10;91.20;;;;;;5093687;28;20425;-72
2022/06/09 05:17:08;;;;;;;23.83;7.03;;;15.10;91.10;;;;;;5094416;28;20036;-72
2022/06/09 05:19:34;;;;;;;23.77;7.90;;;15.10;91.40;;;;;;5094461;28;20024;-72
2022/06/09 05:21:59;;;;;;;22.50;7.22;;;15.10;91.40;;;;;;5093331;28;20029;-72
2022/06/09 05:24:25;;;;;;;23.50;8.00;;;15.10;91.40;;;;;;5094339;28;20044;-72
2022/06/09 05:26:50;;;;;;;20.25;8.20;;;15.10;91.30;;;;;;5094195;28;20082;-72
2022/06/09 05:29:16;;;;;;;20.77;7.68;;;15.10;91.30;;;;;;5094167;28;20021;-72
2022/06/09 05:31:43;;;;;;;22.35;8.35;;;15.10;91.20;;;;;;5094218;28;20112;-72
2022/06/09 05:34:10;;;;;;;19.67;8.32;;;15.10;91.20;;;;;;5094109;28;20024;-72
2022/06/09 05:36:36;;;;;;;25.23;9.00;;;15.10;91.30;;;;;;5092936;28;20024;-73
2022/06/09 05:47:14;;;;;;;19.33;8.50;;;15.20;91.30;;;;;;5094053;28;20067;-73
2022/06/09 05:49:40;;;;;;;24.95;9.05;;;15.20;91.50;;;;;;5093815;28;20025;-72
2022/06/09 05:52:06;;;;;;;22.65;9.32;;;15.20;91.10;;;;;;5093771;28;20035;-73
2022/06/09 05:54:31;;;;;;;25.83;8.77;;;15.20;91.30;;;;;;5093748;28;20028;-72
2022/06/09 05:56:57;;;;;;;26.40;8.27;;;15.30;91.20;;;;;;5093656;28;20059;-73
2022/06/09 05:59:23;;;;;;;23.58;8.98;;;15.30;91.20;;;;;;5093401;28;20038;-72
2022/06/09 06:01:48;;;;;;;23.63;9.45;;;15.30;91.10;;;;;;5093662;28;20430;-73
2022/06/09 06:04:15;;;;;;;26.58;8.57;;;15.40;91.10;;;;;;5093651;28;20051;-73
2022/06/09 06:06:41;;;;;;;20.90;8.48;;;15.50;91.00;;;;;;5093558;28;20029;-73
2022/06/09 06:09:13;;;;;;;16.58;8.30;;;15.40;90.80;;;;;;5093548;28;20042;-73
2022/06/09 06:11:39;;;;;;;22.42;7.35;;;15.50;90.80;;;;;;5091470;28;20029;-72
2022/06/09 06:14:06;;;;;;;19.02;7.65;;;15.50;90.60;;;;;;5093569;28;20033;-73
2022/06/09 06:16:31;;;;;;;19.20;7.13;;;15.50;90.60;;;;;;5093270;28;20035;-73
2022/06/09 06:18:57;;;;;;;17.95;8.00;;;15.60;90.50;;;;;;5093417;28;20013;-72
2022/06/09 06:21:24;;;;;;;21.33;7.20;;;15.60;90.80;;;;;;5093394;28;20380;-73
2022/06/09 06:23:50;;;;;;;17.75;7.60;;;15.70;90.50;;;;;;5093352;28;20084;-73
2022/06/09 06:26:16;;;;;;;20.42;7.43;;;15.80;90.40;;;;;;5093310;28;20021;-72
2022/06/09 06:28:42;;;;;;;18.85;6.97;;;15.90;90.40;;;;;;5093195;28;20032;-72
2022/06/09 06:31:08;;;;;;;19.73;6.72;;;15.90;90.20;;;;;;5093302;28;20028;-72
2022/06/09 06:33:33;;;;;;;15.00;5.63;;;16.00;90.00;;;;;;5093279;28;20111;-72
2022/06/09 06:35:59;;;;;;;14.73;6.38;;;16.00;90.00;;;;;;5093253;28;20036;-72
2022/06/09 06:38:25;;;;;;;15.35;7.05;;;16.00;89.80;;;;;;5092699;28;20051;-72
2022/06/09 06:40:50;;;;;;;16.60;6.75;;;16.10;90.00;;;;;;5093123;28;20088;-72
2022/06/09 06:43:16;;;;;;;15.95;7.47;;;16.20;90.10;;;;;;5093142;28;20028;-72
2022/06/09 06:45:43;;;;;;;14.48;6.38;;;16.30;90.30;;;;;;5093152;28;20013;-72
2022/06/09 06:48:09;;;;;;;13.93;5.70;;;16.40;90.00;;;;;;5093124;28;20044;-72
2022/06/09 06:50:35;;;;;;;12.32;5.63;;;16.50;89.80;;;;;;5093063;28;20036;-72
2022/06/09 06:53:01;;;;;;;12.35;5.10;;;16.50;89.70;;;;;;5093091;28;20051;-72
2022/06/09 06:55:27;;;;;;;14.15;5.07;;;16.60;88.90;;;;;;5093008;28;20025;-71
2022/06/09 06:57:53;;;;;;;10.25;4.95;;;16.50;88.00;;;;;;5092923;28;20078;-71
2022/06/09 07:00:22;;;;;;;8.73;4.97;;;16.50;87.50;;;;;;5092809;28;20066;-71
2022/06/09 07:02:49;;;;;;;11.95;4.88;;;16.40;87.80;;;;;;5092956;28;20052;-71
2022/06/09 07:05:17;;;;;;;9.82;5.43;;;16.40;88.30;;;;;;5092934;28;20032;-71
2022/06/09 07:07:43;;;;;;;10.20;4.13;;;16.50;88.30;;;;;;5092877;28;20032;-71
2022/06/09 07:10:10;;;;;;;7.47;3.72;;;16.50;88.20;;;;;;5092876;28;20029;-72
2022/06/09 07:12:37;;;;;;;10.48;3.58;;;16.50;88.30;;;;;;5092834;28;20033;-72
2022/06/09 07:15:04;;;;;;;10.35;3.55;;;16.60;87.60;;;;;;5092840;28;20025;-72
2022/06/09 07:17:29;;;;;;;8.05;3.50;;;16.60;87.70;;;;;;5092726;28;20024;-72
2022/06/09 07:19:55;;;;;;;8.50;4.05;;;16.60;87.30;;;;;;5092771;28;20021;-71
2022/06/09 07:22:20;;;;;;;7.80;2.78;;;16.60;86.60;;;;;;5092734;28;20078;-71
2022/06/09 07:24:47;;;;;;;5.10;3.17;;;16.60;86.00;;;;;;5092720;28;20021;-71
2022/06/09 07:27:13;;;;;;;3.78;2.47;;;16.60;86.00;;;;;;5092751;28;20032;-71
2022/06/09 07:29:40;;;;;;;8.13;2.78;;;16.50;85.30;;;;;;5092631;28;20058;-71
2022/06/09 07:32:07;;;;;;;6.15;2.35;;;16.60;86.20;;;;;;5092665;28;20044;-72
2022/06/09 07:34:33;;;;;;;5.63;2.38;;;16.60;85.90;;;;;;5092800;28;20020;-72
2022/06/09 07:36:59;;;;;;;5.20;2.38;;;16.60;85.50;;;;;;5092587;28;20051;-72
2022/06/09 07:39:25;;;;;;;8.73;2.30;;;16.60;85.60;;;;;;5092618;28;20051;-71
2022/06/09 07:41:51;;;;;;;5.18;2.25;;;16.60;85.30;;;;;;5092609;28;20024;-72
2022/06/09 07:44:18;;;;;;;8.95;2.63;;;16.70;85.30;;;;;;5092602;28;20042;-72
2022/06/09 07:46:44;;;;;;;5.30;3.05;;;16.70;85.50;;;;;;5092526;28;20479;-72
2022/06/09 07:49:10;;;;;;;4.15;2.80;;;16.80;85.80;;;;;;5091510;28;20020;-72
2022/06/09 07:51:36;;;;;;;5.32;3.22;;;16.80;85.60;;;;;;5094796;28;20082;-72
2022/06/09 07:54:03;;;;;;;7.53;3.38;;;16.90;85.70;;;;;;5096095;28;20029;-72
2022/06/09 07:56:31;;;;;;;6.03;3.10;;;16.90;85.50;;;;;;5095950;28;20024;-71
2022/06/09 07:58:56;;;;;;;5.93;2.78;;;16.90;85.20;;;;;;5095072;28;20025;-71
2022/06/09 08:01:22;;;;;;;5.28;2.80;;;16.90;84.30;;;;;;5095861;28;20112;-72
2022/06/09 08:03:48;;;;;;;5.40;2.80;;;16.90;83.70;;;;;;5095950;28;20028;-72
2022/06/09 08:06:15;;;;;;;5.00;2.90;;;16.80;83.60;;;;;;5095910;28;20024;-72
2022/06/09 08:08:41;;;;;;;4.22;2.58;;;16.80;83.40;;;;;;5095898;28;20037;-72
2022/06/09 08:11:07;;;;;;;4.32;3.08;;;16.80;84.00;;;;;;5094727;28;20078;-72
2022/06/09 08:13:34;;;;;;;4.75;2.85;;;16.80;84.80;;;;;;5095751;28;20049;-72
2022/06/09 08:16:01;;;;;;;4.53;3.20;;;16.90;84.80;;;;;;5095638;28;20434;-72
2022/06/09 08:18:28;;;;;;;5.53;2.83;;;17.00;84.80;;;;;;5095652;28;20033;-72
2022/06/09 08:20:54;;;;;;;2.92;2.28;;;17.10;84.60;;;;;;5095661;28;20024;-71
2022/06/09 08:23:23;;;;;;;3.83;2.40;;;17.20;83.20;;;;;;5095565;28;20384;-72
2022/06/09 08:25:51;;;;;;;3.55;1.85;;;17.40;83.40;;;;;;5095567;28;20012;-72
2022/06/09 08:28:18;;;;;;;2.92;2.20;;;17.40;81.40;;;;;;5095422;28;20017;-72
2022/06/09 08:30:46;;;;;;;1.77;1.30;;;17.40;80.70;;;;;;5095445;28;20021;-72
2022/06/09 08:33:11;;;;;;;2.70;1.50;;;17.50;80.80;;;;;;5095391;28;20028;-72
2022/06/09 08:35:37;;;;;;;1.65;1.40;;;17.70;80.30;;;;;;5095332;28;20031;-72
2022/06/09 08:38:05;;;;;;;2.63;1.67;;;17.80;79.90;;;;;;5093966;28;20048;-72
2022/06/09 08:40:53;;;;;;;1.92;1.38;;;17.80;79.20;;;;;;5095231;28;20024;-72
2022/06/09 08:43:58;;;;;;;2.20;1.30;;;17.90;78.20;;;;;;5095267;28;20032;-72
2022/06/09 08:46:24;;;;;;;1.63;1.40;;;17.90;77.50;;;;;;5081678;28;20041;-72
2022/06/09 08:48:53;;;;;;;2.95;1.50;;;18.00;78.20;;;;;;5095105;28;20025;-72
2022/06/09 08:51:39;;;;;;;4.05;1.50;;;18.10;77.70;;;;;;5095060;28;20028;-72
2022/06/09 08:54:35;;;;;;;1.80;1.10;;;18.20;76.70;;;;;;5095018;28;20021;-72
2022/06/09 08:57:09;;;;;;;2.45;1.50;;;18.30;75.40;;;;;;5082239;28;20032;-72
2022/06/09 08:59:37;;;;;;;3.03;1.70;;;18.30;77.10;;;;;;5094708;28;21602;-72
2022/06/09 09:02:41;;;;;;;3.70;2.03;;;18.40;78.10;;;;;;5094458;28;20048;-72
2022/06/09 09:05:24;;;;;;;4.90;2.30;;;18.30;75.40;;;;;;5081345;28;20035;-72
2022/06/09 09:07:53;;;;;;;3.38;2.40;;;18.30;77.10;;;;;;5094745;28;20044;-72
2022/06/09 09:10:44;;;;;;;2.65;1.38;;;18.30;76.80;;;;;;5093646;28;20020;-72
2022/06/09 09:13:22;;;;;;;1.60;1.10;;;18.30;76.00;;;;;;5094763;28;20444;-72
2022/06/09 09:16:01;;;;;;;1.77;1.30;;;18.30;72.20;;;;;;5094439;28;20032;-72
2022/06/09 09:19:03;;;;;;;1.58;1.13;;;18.30;74.10;;;;;;5094479;28;20486;-72
2022/06/09 09:21:59;;;;;;;4.33;1.80;;;18.30;75.20;;;;;;5060728;28;20036;-72
2022/06/09 09:24:39;;;;;;;1.00;0.82;;;18.40;74.80;;;;;;5081065;28;20298;-72
2022/06/09 09:27:31;;;;;;;1.45;0.90;;;18.50;72.00;;;;;;5093241;28;20064;-72
2022/06/09 09:30:27;;;;;;;1.63;1.10;;;18.50;72.90;;;;;;5094266;28;20051;-71
2022/06/09 09:32:55;;;;;;;1.50;1.30;;;18.50;71.50;;;;;;5094236;28;20054;-72
2022/06/09 09:35:27;;;;;;;1.83;1.10;;;18.60;71.70;;;;;;5094199;28;20028;-72
2022/06/09 09:37:56;;;;;;;2.15;1.20;;;18.70;72.50;;;;;;5094107;28;20029;-71
2022/06/09 09:40:28;;;;;;;2.33;1.40;;;18.80;71.20;;;;;;5094095;28;20020;-71
2022/06/09 09:42:57;;;;;;;3.83;2.17;;;18.80;70.90;;;;;;5094028;28;20025;-71
2022/06/09 09:45:36;;;;;;;3.97;1.50;;;18.70;71.00;;;;;;5094100;28;20021;-71
2022/06/09 09:48:28;;;;;;;2.53;1.70;;;18.70;71.70;;;;;;5093944;28;20076;-72
2022/06/09 09:51:05;;;;;;;3.00;1.60;;;18.80;71.80;;;;;;5086799;28;20100;-72
2022/06/09 09:53:35;;;;;;;4.00;2.03;;;18.80;71.20;;;;;;5093916;28;20035;-72
2022/06/09 09:56:16;;;;;;;3.67;1.80;;;19.00;72.50;;;;;;5093768;28;20025;-72
2022/06/09 09:58:47;;;;;;;2.22;1.50;;;19.00;71.30;;;;;;5093705;28;20048;-72
2022/06/09 10:01:25;;;;;;;4.07;1.70;;;19.10;70.90;;;;;;5093539;28;20090;-72
2022/06/09 10:10:15;;;;;;;6.13;1.80;;;19.40;71.00;;;;;;5051886;28;20083;-72
2022/06/09 10:12:41;;;;;;;4.65;1.80;;;19.40;71.50;;;;;;5078955;28;20041;-72
2022/06/09 10:15:10;;;;;;;4.72;2.20;;;19.50;71.40;;;;;;5093085;28;20025;-71
2022/06/09 10:17:48;;;;;;;6.15;2.40;;;19.60;70.50;;;;;;5093308;28;20029;-72
2022/06/09 10:20:14;;;;;;;5.65;2.38;;;19.70;71.40;;;;;;5093604;28;20479;-72
2022/06/09 10:22:42;;;;;;;4.50;2.25;;;19.70;71.10;;;;;;5093351;28;20024;-72
2022/06/09 10:25:23;;;;;;;3.33;2.17;;;19.80;70.60;;;;;;5093321;28;20023;-72
2022/06/09 10:27:57;;;;;;;8.40;2.53;;;19.90;70.00;;;;;;5092408;28;20028;-72
2022/06/09 10:30:35;;;;;;;4.80;2.38;;;20.00;70.20;;;;;;5093296;28;20029;-72
2022/06/09 10:33:52;;;;;;;5.80;2.25;;;20.10;70.30;;;;;;5093420;28;20030;-72
2022/06/09 10:36:22;;;;;;;4.95;2.65;;;20.30;69.60;;;;;;5079057;28;20040;-72
2022/06/09 10:38:54;;;;;;;4.65;2.53;;;20.30;69.00;;;;;;5093340;28;20044;-72
2022/06/09 10:41:30;;;;;;;5.78;2.33;;;20.30;67.40;;;;;;5093247;28;20416;-73
2022/06/09 10:44:15;;;;;;;4.75;2.67;;;20.20;67.70;;;;;;5093193;28;20103;-72
2022/06/09 10:55:14;;;;;;;5.50;3.10;;;20.20;67.70;;;;;;5093284;28;20119;-71
2022/06/09 10:55:31;;;;;;;10.25;3.50;;;20.20;69.80;;;;;;5093226;28;20043;-71
2022/06/09 10:58:23;;;;;;;4.53;3.10;;;20.20;65.70;;;;;;5093013;28;20028;-72
2022/06/09 11:00:51;;;;;;;6.18;3.13;;;20.20;67.40;;;;;;5092879;28;20045;-72
2022/06/09 11:03:19;;;;;;;6.03;2.95;;;20.30;70.10;;;;;;5092953;28;20017;-72
2022/06/09 11:05:52;;;;;;;5.68;3.70;;;20.50;70.10;;;;;;5092949;28;20074;-72
2022/06/09 11:08:41;;;;;;;6.90;3.45;;;20.50;67.60;;;;;;5093079;28;20021;-72
2022/06/09 11:11:24;;;;;;;6.57;3.10;;;20.60;67.50;;;;;;5092965;28;20028;-73
2022/06/09 11:13:56;;;;;;;8.32;3.42;;;20.80;69.30;;;;;;5092913;28;20088;-72
2022/06/09 11:17:03;;;;;;;6.30;3.45;;;20.90;66.50;;;;;;5092838;28;20103;-72
2022/06/09 11:20:02;;;;;;;6.68;3.42;;;20.90;64.50;;;;;;5071982;28;20033;-72
2022/06/09 11:23:08;;;;;;;4.82;2.85;;;21.00;65.40;;;;;;5092920;28;20090;-72
2022/06/09 11:26:28;;;;;;;6.53;3.25;;;21.00;65.20;;;;;;5095290;28;20048;-72
2022/06/09 11:29:14;;;;;;;4.88;2.97;;;21.10;64.20;;;;;;5034939;28;20057;-73
2022/06/09 11:32:03;;;;;;;7.65;3.35;;;21.10;65.00;;;;;;5096710;28;20036;-72
2022/06/09 11:35:03;;;;;;;6.43;3.88;;;21.00;64.20;;;;;;5096696;28;20028;-72
2022/06/09 11:37:43;;;;;;;6.72;3.08;;;20.90;63.80;;;;;;5096515;28;20028;-72
2022/06/09 11:40:46;;;;;;;5.32;2.40;;;20.90;65.20;;;;;;5096428;28;20016;-71
2022/06/09 11:43:30;;;;;;;5.50;1.95;;;20.90;61.40;;;;;;5096300;28;20043;-72
2022/06/09 11:46:01;;;;;;;4.82;2.15;;;20.80;62.30;;;;;;5096315;28;20028;-72
2022/06/09 11:48:45;;;;;;;7.18;2.15;;;20.70;62.30;;;;;;5096263;28;20017;-72
2022/06/09 11:51:11;;;;;;;7.63;2.60;;;20.60;63.00;;;;;;5096216;28;20088;-72
2022/06/09 11:53:45;;;;;;;7.40;2.80;;;20.50;63.10;;;;;;5096164;28;20032;-72
2022/06/09 11:56:43;;;;;;;6.07;2.58;;;20.50;63.20;;;;;;5096087;28;20020;-72
2022/06/09 11:59:12;;;;;;;5.75;2.65;;;20.50;62.90;;;;;;5096199;28;20050;-71
2022/06/09 12:01:37;;;;;;;6.93;2.45;;;20.50;63.50;;;;;;5095847;28;20037;-72
2022/06/09 12:04:50;;;;;;;5.78;2.42;;;20.50;63.60;;;;;;5095963;28;20105;-71
2022/06/09 12:07:49;;;;;;;6.38;2.30;;;20.50;62.50;;;;;;5094925;28;20043;-72
2022/06/09 12:10:40;;;;;;;4.63;2.20;;;20.40;63.00;;;;;;5096020;28;20040;-72
2022/06/09 12:13:15;;;;;;;5.93;2.22;;;20.40;62.80;;;;;;5095866;28;20028;-72
2022/06/09 12:16:02;;;;;;;7.10;2.20;;;20.40;63.70;;;;;;5095959;28;20021;-72
2022/06/09 12:18:30;;;;;;;7.22;2.13;;;20.30;62.30;;;;;;5095728;28;20054;-72
2022/06/09 12:21:11;;;;;;;6.22;2.20;;;20.20;63.60;;;;;;5095620;28;20025;-72
2022/06/09 12:23:41;;;;;;;6.55;2.10;;;20.20;63.90;;;;;;5095570;28;20063;-72
2022/06/09 12:26:10;;;;;;;6.20;2.20;;;20.30;64.30;;;;;;5095744;28;20036;-72
2022/06/09 12:28:54;;;;;;;5.28;1.90;;;20.30;63.80;;;;;;5095456;28;20051;-72
2022/06/09 12:31:21;;;;;;;4.15;1.88;;;20.30;63.00;;;;;;5095590;28;20024;-72
2022/06/09 12:34:00;;;;;;;5.25;2.20;;;20.30;64.20;;;;;;5095443;28;20043;-72
2022/06/09 12:36:48;;;;;;;4.07;1.80;;;20.40;62.70;;;;;;5094551;28;20029;-72
2022/06/09 12:39:28;;;;;;;4.18;1.60;;;20.40;62.00;;;;;;5095524;28;20021;-73
2022/06/09 12:42:01;;;;;;;6.57;1.50;;;20.40;62.50;;;;;;5095342;28;20016;-72
2022/06/09 12:44:31;;;;;;;5.85;1.90;;;20.50;62.00;;;;;;5095373;28;20028;-72
2022/06/09 12:47:03;;;;;;;5.75;2.03;;;20.50;60.90;;;;;;5095166;28;20040;-72
2022/06/09 12:49:33;;;;;;;;;;;20.60;61.70;;;;;;5094453;28;20020;-72
2022/06/09 12:52:00;;;;;;;4.00;1.50;;;20.60;61.00;;;;;;5095036;28;19912;-72
2022/06/09 12:54:30;;;;;;;5.30;1.60;;;20.60;60.00;;;;;;5095043;28;20080;-71
2022/06/09 12:57:13;;;;;;;4.15;1.70;;;20.60;60.00;;;;;;5094916;28;20024;-72
2022/06/09 12:59:41;;;;;;;4.55;1.85;;;20.70;58.80;;;;;;5078203;28;20049;-72
2022/06/09 13:02:13;;;;;;;4.95;1.65;;;20.70;59.20;;;;;;5093909;28;20058;-72
2022/06/09 13:04:51;;;;;;;4.45;1.67;;;20.90;58.50;;;;;;5094872;28;20029;-70
2022/06/09 13:07:26;;;;;;;6.63;1.55;;;21.00;58.40;;;;;;5094789;28;20414;-72
2022/06/09 13:10:19;;;;;;;4.13;1.67;;;21.10;58.20;;;;;;5094738;28;20028;-72
2022/06/09 13:12:53;;;;;;;5.75;1.52;;;21.30;57.40;;;;;;5094753;28;20024;-72
2022/06/09 13:15:24;;;;;;;3.40;1.40;;;21.40;59.50;;;;;;5094795;28;20087;-72
2022/06/09 13:17:50;;;;;;;6.68;1.60;;;21.50;56.80;;;;;;5094574;28;20029;-72
2022/06/09 13:20:21;;;;;;;5.15;1.48;;;21.50;57.50;;;;;;5094551;28;20030;-73
2022/06/09 13:22:48;;;;;;;3.95;1.48;;;21.50;57.00;;;;;;5094517;28;20375;-73
2022/06/09 13:25:18;;;;;;;5.57;1.60;;;21.30;55.20;;;;;;5094533;28;20085;-73
2022/06/09 13:27:45;;;;;;;7.00;1.88;;;21.20;55.50;;;;;;5094288;28;20029;-72